Hlavní strana
METAR-TAF:

METAR-TAF

Letiště :

Metropolis Municipal Airport

Metropolis, Illinois, Spojené státy americké

zeměpisná šířka: 37-11-09N, zeměpisná délka: 088-45-02W, výška: 117 m

Aktuální stav počasí

Zpráva byla vytvořena před 17 minutami, v 23:55 UTC
Bezvětří
Teplota 5°C
Vlhkost vzduchu 81%
Tlak 1025 hPa
Viditelnost: 4.8 km
Jasno
zákal

METAR: KM30 072355Z AUTO 00000KT 3SM HZ CLR 05/02 A3028 RMK AO2 T00490016 10112 20049

Čas: 18:12 (00:12 UTC)


TAF: chybějící

Stav a předpovědi počasí z více než 4 000 letišť (zprávy METAR a TAF).

Červené a žluté tečky na mapě představují dostupné meteorologické stanice.

Když kurzor umístíte na tečku, zobrazí se název stanice.

Pak kliknutím zobrazíte stav a předpověď počasí.

Chcete-li změnit mapu, kliknutím na zelené tlačítko se znaménkem +mapu přiblížíte, kliknutím na zelené tlačítko se znaménkem – mapu oddálíte a kliknutím na zelené šipky přejdete na sousední mapy.


METAR-TAF: